createdAt,value
2018-09-02T00:02:12.637Z,14.36
2018-09-02T00:04:41.811Z,14.33
2018-09-02T00:07:10.350Z,14.32
2018-09-02T00:09:39.303Z,14.32
2018-09-02T00:12:10.053Z,14.33
2018-09-02T00:14:39.550Z,14.32
2018-09-02T00:17:08.136Z,14.27
2018-09-02T00:19:38.023Z,14.26
2018-09-02T00:22:06.907Z,14.23
2018-09-02T00:24:35.586Z,14.22
2018-09-02T00:27:05.807Z,14.23
2018-09-02T00:29:35.126Z,14.23
2018-09-02T00:32:04.371Z,14.20
2018-09-02T00:34:33.027Z,14.20
2018-09-02T00:37:03.272Z,14.19
2018-09-02T00:39:31.786Z,14.18
2018-09-02T00:42:00.533Z,14.15
2018-09-02T00:44:29.341Z,14.15
2018-09-02T00:46:58.893Z,14.15
2018-09-02T00:49:27.637Z,14.15
2018-09-02T00:51:56.986Z,14.14
2018-09-02T00:54:25.903Z,14.08
2018-09-02T00:56:54.603Z,14.06
2018-09-02T00:59:23.132Z,14.06
2018-09-02T01:01:53.282Z,14.01
2018-09-02T01:04:21.997Z,14.01
2018-09-02T01:06:51.971Z,14.02
2018-09-02T01:09:20.626Z,14.02
2018-09-02T01:11:49.354Z,13.96
2018-09-02T01:14:19.023Z,13.96
2018-09-02T01:16:48.341Z,13.96
2018-09-02T01:19:17.068Z,13.93
2018-09-02T01:21:47.968Z,13.95
2018-09-02T01:24:16.551Z,13.96
2018-09-02T01:26:45.190Z,13.99
2018-09-02T01:29:14.418Z,13.94
2018-09-02T01:31:43.126Z,13.90
2018-09-02T01:34:11.807Z,13.88
2018-09-02T01:36:40.683Z,13.84
2018-09-02T01:39:09.548Z,13.84
2018-09-02T01:41:38.697Z,13.84
2018-09-02T01:44:07.344Z,13.84
2018-09-02T01:46:36.860Z,13.89
2018-09-02T01:49:06.337Z,13.85
2018-09-02T01:51:34.987Z,13.83
2018-09-02T01:54:03.647Z,13.76
2018-09-02T01:56:33.095Z,13.72
2018-09-02T01:59:05.036Z,13.69
2018-09-02T02:01:35.791Z,13.66
2018-09-02T02:04:05.003Z,13.62
2018-09-02T02:06:33.816Z,13.66
2018-09-02T02:09:02.558Z,13.66
2018-09-02T02:11:31.368Z,13.64
2018-09-02T02:14:01.352Z,13.68
2018-09-02T02:16:30.634Z,13.69
2018-09-02T02:18:59.868Z,13.69
2018-09-02T02:21:28.576Z,13.66
2018-09-02T02:23:57.282Z,13.65
2018-09-02T02:26:26.643Z,13.64
2018-09-02T02:28:55.578Z,13.61
2018-09-02T02:31:24.462Z,13.61
2018-09-02T02:33:53.057Z,13.58
2018-09-02T02:36:22.421Z,13.59
2018-09-02T02:38:51.186Z,13.61
2018-09-02T02:41:20.509Z,13.54
2018-09-02T02:43:50.194Z,13.56
2018-09-02T02:46:19.243Z,13.52
2018-09-02T02:48:48.237Z,13.50
2018-09-02T02:51:16.898Z,13.47
2018-09-02T02:53:46.111Z,13.49
2018-09-02T02:56:15.144Z,13.48
2018-09-02T02:58:45.008Z,13.51
2018-09-02T03:01:15.582Z,13.48
2018-09-02T03:03:45.987Z,13.45
2018-09-02T03:06:15.736Z,13.46
2018-09-02T03:08:44.396Z,13.47
2018-09-02T03:11:13.074Z,13.50
2018-09-02T03:13:42.252Z,13.50
2018-09-02T03:16:10.999Z,13.51
2018-09-02T03:18:40.238Z,13.52
2018-09-02T03:21:09.427Z,13.54
2018-09-02T03:23:38.506Z,13.50
2018-09-02T03:26:08.238Z,13.52
2018-09-02T03:28:37.061Z,13.54
2018-09-02T03:31:08.742Z,13.49
2018-09-02T03:33:37.353Z,13.47
2018-09-02T03:36:07.192Z,13.47
2018-09-02T03:38:35.808Z,13.43
2018-09-02T03:41:04.697Z,13.43
2018-09-02T03:43:34.109Z,13.45
2018-09-02T03:46:03.589Z,13.41
2018-09-02T03:48:32.890Z,13.44
2018-09-02T03:51:02.624Z,13.40
2018-09-02T03:53:32.094Z,13.38
2018-09-02T03:57:25.365Z,13.39
2018-09-02T03:59:54.141Z,13.41
2018-09-02T04:02:22.984Z,13.39
2018-09-02T04:04:51.699Z,13.41
2018-09-02T04:07:20.392Z,13.37
2018-09-02T04:09:49.328Z,13.38
2018-09-02T04:12:18.818Z,13.39
2018-09-02T04:14:47.489Z,13.40
2018-09-02T04:17:16.202Z,13.38
2018-09-02T04:19:44.993Z,13.38
2018-09-02T04:22:13.644Z,13.37
2018-09-02T04:24:42.837Z,13.38
2018-09-02T04:27:11.417Z,13.34
2018-09-02T04:29:40.117Z,13.30
2018-09-02T04:32:09.762Z,13.34
2018-09-02T04:34:39.619Z,13.34
2018-09-02T04:37:09.402Z,13.36
2018-09-02T04:39:38.113Z,13.37
2018-09-02T04:42:08.280Z,13.36
2018-09-02T04:44:37.508Z,13.36
2018-09-02T04:47:06.125Z,13.35
2018-09-02T04:49:35.008Z,13.36
2018-09-02T04:52:03.814Z,13.38
2018-09-02T04:54:33.815Z,13.39
2018-09-02T04:57:02.716Z,13.41
2018-09-02T04:59:31.561Z,13.44
2018-09-02T05:02:00.287Z,13.44
2018-09-02T05:04:29.322Z,13.48
2018-09-02T05:06:59.105Z,13.50
2018-09-02T05:09:27.694Z,13.50
2018-09-02T05:11:56.683Z,13.50
2018-09-02T05:14:25.273Z,13.50
2018-09-02T05:16:54.624Z,13.49
2018-09-02T05:19:24.048Z,13.55
2018-09-02T05:21:53.735Z,13.59
2018-09-02T05:24:22.275Z,13.62
2018-09-02T05:26:51.398Z,13.60
2018-09-02T05:29:20.713Z,13.53
2018-09-02T05:31:50.604Z,13.59
2018-09-02T05:34:19.218Z,13.64
2018-09-02T05:36:48.495Z,13.71
2018-09-02T05:39:17.394Z,13.75
2018-09-02T05:41:47.814Z,13.82
2018-09-02T05:44:16.783Z,13.88
2018-09-02T05:46:45.648Z,13.99
2018-09-02T05:49:14.293Z,13.96
2018-09-02T05:51:43.838Z,13.90
2018-09-02T05:54:13.720Z,13.92
2018-09-02T05:56:42.589Z,13.92
2018-09-02T05:59:12.108Z,13.92
2018-09-02T06:01:41.623Z,13.92
2018-09-02T06:04:10.428Z,13.98
2018-09-02T06:06:38.966Z,14.05
2018-09-02T06:09:09.913Z,14.09
2018-09-02T06:11:39.393Z,14.13
2018-09-02T06:14:09.461Z,14.23
2018-09-02T06:16:39.142Z,14.33
2018-09-02T06:19:07.914Z,14.35
2018-09-02T06:21:36.614Z,14.35
2018-09-02T06:24:05.438Z,14.34
2018-09-02T06:26:35.593Z,14.41
2018-09-02T06:29:06.054Z,14.46
2018-09-02T06:31:35.003Z,14.42
2018-09-02T06:34:03.877Z,14.47
2018-09-02T06:36:32.605Z,14.47
2018-09-02T06:39:01.753Z,14.42
2018-09-02T06:41:30.541Z,14.49
2018-09-02T06:43:59.196Z,14.55
2018-09-02T06:46:28.118Z,14.64
2018-09-02T06:48:57.704Z,14.65
2018-09-02T06:51:26.280Z,14.67
2018-09-02T06:53:55.216Z,14.67
2018-09-02T06:56:23.753Z,14.62
2018-09-02T06:58:52.721Z,14.53
2018-09-02T07:01:21.860Z,14.49
2018-09-02T07:03:51.629Z,14.44
2018-09-02T07:06:20.255Z,14.45
2018-09-02T07:08:49.056Z,14.47
2018-09-02T07:11:17.799Z,14.47
2018-09-02T07:13:46.914Z,14.50
2018-09-02T07:16:16.188Z,14.57
2018-09-02T07:18:45.620Z,14.59
2018-09-02T07:21:17.571Z,14.63
2018-09-02T07:23:46.532Z,14.70
2018-09-02T07:26:16.008Z,14.75
2018-09-02T07:28:44.805Z,14.81
2018-09-02T07:31:13.526Z,14.86
2018-09-02T07:33:42.660Z,14.93
2018-09-02T07:36:11.856Z,14.90
2018-09-02T07:38:41.681Z,14.94
2018-09-02T07:41:10.416Z,14.98
2018-09-02T07:43:39.543Z,14.97
2018-09-02T07:46:08.429Z,14.94
2018-09-02T07:48:37.084Z,14.88
2018-09-02T07:51:06.228Z,14.91
2018-09-02T07:53:36.596Z,14.91
2018-09-02T07:56:05.700Z,14.90
2018-09-02T07:58:35.564Z,14.92
2018-09-02T08:01:06.048Z,14.97
2018-09-02T08:03:35.959Z,15.05
2018-09-02T08:06:04.826Z,15.14
2018-09-02T08:08:33.581Z,15.21
2018-09-02T08:11:03.018Z,15.33
2018-09-02T08:13:31.722Z,15.48
2018-09-02T08:16:00.534Z,15.54
2018-09-02T08:18:29.641Z,15.50
2018-09-02T08:20:58.531Z,15.55
2018-09-02T08:23:28.159Z,15.53
2018-09-02T08:25:57.444Z,15.49
2018-09-02T08:28:26.793Z,15.41
2018-09-02T08:30:56.270Z,15.39
2018-09-02T08:33:25.075Z,15.42
2018-09-02T08:35:53.782Z,15.47
2018-09-02T08:38:22.413Z,15.31
2018-09-02T08:40:51.308Z,15.25
2018-09-02T08:43:19.944Z,15.20
2018-09-02T08:45:49.273Z,15.23
2018-09-02T08:48:18.428Z,15.24
2018-09-02T08:50:48.015Z,15.27
2018-09-02T08:53:16.826Z,15.31
2018-09-02T08:55:45.959Z,15.26
2018-09-02T08:58:15.060Z,15.29
2018-09-02T09:00:44.200Z,15.21
2018-09-02T09:03:13.834Z,15.22
2018-09-02T09:05:43.146Z,15.23
2018-09-02T09:08:12.360Z,15.20
2018-09-02T09:10:42.330Z,15.24
2018-09-02T09:13:11.161Z,15.36
2018-09-02T09:15:39.894Z,15.49
2018-09-02T09:18:09.275Z,15.61
2018-09-02T09:20:38.629Z,15.72
2018-09-02T09:23:07.477Z,15.88
2018-09-02T09:25:36.695Z,15.94
2018-09-02T09:28:06.911Z,15.97
2018-09-02T09:30:36.079Z,15.93
2018-09-02T09:33:05.000Z,15.96
2018-09-02T09:35:35.484Z,15.95
2018-09-02T09:38:04.749Z,16.08
2018-09-02T09:40:33.651Z,16.18
2018-09-02T09:43:03.384Z,16.33
2018-09-02T09:45:32.487Z,16.48
2018-09-02T09:48:01.974Z,16.59
2018-09-02T09:50:30.804Z,16.69
2018-09-02T09:53:00.167Z,16.70
2018-09-02T09:55:29.063Z,16.67
2018-09-02T09:57:58.600Z,16.51
2018-09-02T10:00:33.327Z,16.32
2018-09-02T10:03:03.269Z,16.33
2018-09-02T10:05:32.034Z,16.13
2018-09-02T10:08:01.177Z,16.08
2018-09-02T10:10:30.122Z,16.01
2018-09-02T10:12:59.835Z,16.10
2018-09-02T10:15:29.420Z,16.14
2018-09-02T10:17:58.213Z,16.20
2018-09-02T10:20:28.114Z,16.32
2018-09-02T10:22:57.192Z,16.52
2018-09-02T10:25:25.996Z,16.51
2018-09-02T10:27:54.685Z,16.53
2018-09-02T10:30:24.272Z,16.49
2018-09-02T10:32:53.410Z,16.37
2018-09-02T10:35:22.336Z,16.42
2018-09-02T10:37:51.654Z,16.45
2018-09-02T10:40:21.156Z,16.53
2018-09-02T10:42:50.301Z,16.37
2018-09-02T10:45:20.197Z,16.30
2018-09-02T10:47:49.791Z,16.23
2018-09-02T10:50:19.755Z,16.13
2018-09-02T10:52:48.332Z,16.09
2018-09-02T10:55:17.305Z,16.08
2018-09-02T10:57:46.496Z,16.13
2018-09-02T11:00:15.862Z,16.15
2018-09-02T11:02:44.669Z,16.17
2018-09-02T11:05:13.563Z,16.08
2018-09-02T11:07:43.865Z,16.04
2018-09-02T11:10:13.031Z,15.90
2018-09-02T11:12:42.488Z,15.97
2018-09-02T11:15:11.518Z,15.91
2018-09-02T11:17:41.635Z,15.95
2018-09-02T11:20:11.247Z,16.00
2018-09-02T11:22:41.151Z,16.08
2018-09-02T11:25:10.155Z,16.07
2018-09-02T11:27:39.456Z,16.09
2018-09-02T11:30:08.887Z,16.03
2018-09-02T11:32:39.012Z,16.01
2018-09-02T11:35:09.436Z,15.98
2018-09-02T11:37:38.410Z,16.00
2018-09-02T11:40:07.421Z,16.02
2018-09-02T11:42:36.545Z,16.03
2018-09-02T11:45:05.619Z,16.05
2018-09-02T11:47:34.225Z,16.04
2018-09-02T11:50:04.701Z,16.02
2018-09-02T11:52:33.419Z,16.00
2018-09-02T11:55:02.277Z,15.99
2018-09-02T11:57:31.968Z,15.97
2018-09-02T12:00:00.746Z,16.11
2018-09-02T12:02:30.100Z,16.25
2018-09-02T12:04:59.510Z,16.33
2018-09-02T12:07:28.680Z,16.48
2018-09-02T12:09:57.577Z,16.57
2018-09-02T12:12:26.484Z,16.58
2018-09-02T12:14:56.679Z,16.60
2018-09-02T12:17:25.379Z,16.63
2018-09-02T12:19:55.227Z,16.60
2018-09-02T12:22:24.120Z,16.47
2018-09-02T12:24:53.291Z,16.42
2018-09-02T12:27:22.206Z,16.43
2018-09-02T12:29:51.784Z,16.51
2018-09-02T12:32:21.380Z,16.52
2018-09-02T12:34:50.113Z,16.56
2018-09-02T12:37:18.971Z,16.59
2018-09-02T12:39:47.672Z,16.56
2018-09-02T12:42:17.741Z,16.63
2018-09-02T12:44:47.250Z,16.67
2018-09-02T12:47:17.109Z,16.66
2018-09-02T12:49:46.006Z,16.69
2018-09-02T12:52:14.733Z,16.71
2018-09-02T12:54:43.856Z,16.72
2018-09-02T12:57:13.337Z,16.76
2018-09-02T12:59:41.968Z,16.79
2018-09-02T13:02:10.761Z,16.81
2018-09-02T13:04:39.722Z,16.76
2018-09-02T13:07:08.331Z,16.62
2018-09-02T13:09:38.099Z,16.51
2018-09-02T13:12:07.731Z,16.33
2018-09-02T13:14:36.966Z,16.34
2018-09-02T13:17:05.980Z,16.36
2018-09-02T13:19:35.460Z,16.37
2018-09-02T13:22:04.512Z,16.32
2018-09-02T13:24:34.048Z,16.32
2018-09-02T13:27:03.842Z,16.30
2018-09-02T13:29:32.777Z,16.19
2018-09-02T13:32:01.635Z,16.22
2018-09-02T13:34:30.396Z,16.16
2018-09-02T13:36:59.917Z,16.17
2018-09-02T13:39:28.618Z,16.17
2018-09-02T13:41:57.352Z,16.21
2018-09-02T13:44:26.220Z,16.28
2018-09-02T13:46:55.910Z,16.33
2018-09-02T13:49:24.943Z,16.34
2018-09-02T13:51:54.451Z,16.31
2018-09-02T13:54:24.382Z,16.29
2018-09-02T13:56:54.936Z,16.29
2018-09-02T13:59:24.832Z,16.33
2018-09-02T14:01:55.884Z,16.37
2018-09-02T14:04:24.760Z,16.33
2018-09-02T14:06:55.406Z,16.28
2018-09-02T14:09:24.826Z,16.26
2018-09-02T14:11:53.539Z,16.18
2018-09-02T14:14:22.308Z,16.14
2018-09-02T14:16:51.301Z,16.13
2018-09-02T14:19:20.549Z,16.10
2018-09-02T14:21:50.036Z,16.07
2018-09-02T14:24:19.804Z,16.06
2018-09-02T14:26:49.127Z,16.07
2018-09-02T14:29:18.843Z,16.09
2018-09-02T14:31:49.271Z,16.07
2018-09-02T14:34:18.457Z,16.01
2018-09-02T14:36:48.596Z,15.96
2018-09-02T14:39:18.536Z,15.89
2018-09-02T14:41:47.511Z,15.89
2018-09-02T14:44:16.606Z,15.84
2018-09-02T14:46:46.236Z,15.85
2018-09-02T14:49:16.128Z,15.93
2018-09-02T14:51:45.982Z,15.91
2018-09-02T14:54:15.816Z,15.92
2018-09-02T14:56:45.641Z,15.89
2018-09-02T14:59:14.919Z,15.86
2018-09-02T15:01:44.470Z,15.83
2018-09-02T15:04:13.412Z,15.83
2018-09-02T15:06:42.853Z,15.82
2018-09-02T15:09:14.003Z,15.89
2018-09-02T15:11:43.810Z,15.97
2018-09-02T15:14:14.302Z,15.99
2018-09-02T15:16:43.633Z,15.96
2018-09-02T15:19:12.866Z,15.94
2018-09-02T15:21:42.502Z,15.99
2018-09-02T15:24:11.634Z,15.98
2018-09-02T15:26:41.245Z,15.98
2018-09-02T15:29:10.312Z,15.96
2018-09-02T15:31:39.741Z,15.98
2018-09-02T15:34:10.044Z,15.99
2018-09-02T15:36:39.098Z,15.95
2018-09-02T15:39:09.643Z,15.94
2018-09-02T15:41:40.043Z,15.98
2018-09-02T15:44:10.704Z,15.96
2018-09-02T15:46:39.237Z,15.97
2018-09-02T15:49:08.151Z,15.99
2018-09-02T15:51:39.771Z,15.93
2018-09-02T15:54:09.648Z,15.90
2018-09-02T15:56:40.027Z,15.88
2018-09-02T15:59:08.914Z,15.87
2018-09-02T16:01:38.328Z,15.83
2018-09-02T16:04:08.503Z,15.82
2018-09-02T16:06:38.205Z,15.79
2018-09-02T16:09:10.008Z,15.78
2018-09-02T16:11:39.836Z,15.76
2018-09-02T16:14:09.993Z,15.79
2018-09-02T16:16:40.460Z,15.84
2018-09-02T16:19:09.790Z,15.85
2018-09-02T16:21:39.632Z,15.85
2018-09-02T16:24:09.513Z,15.80
2018-09-02T16:26:39.568Z,15.82
2018-09-02T16:29:08.384Z,15.78
2018-09-02T16:31:38.324Z,15.77
2018-09-02T16:34:07.894Z,15.74
2018-09-02T16:36:36.952Z,15.71
2018-09-02T16:39:07.355Z,15.64
2018-09-02T16:41:36.469Z,15.59
2018-09-02T16:44:05.586Z,15.55
2018-09-02T16:46:35.392Z,15.53
2018-09-02T16:49:04.348Z,15.51
2018-09-02T16:51:33.282Z,15.52
2018-09-02T16:54:02.563Z,15.50
2018-09-02T16:56:32.816Z,15.47
2018-09-02T16:59:01.670Z,15.48
2018-09-02T17:01:32.982Z,15.48
2018-09-02T17:04:05.308Z,15.48
2018-09-02T17:06:34.149Z,15.47
2018-09-02T17:09:04.217Z,15.48
2018-09-02T17:11:32.940Z,15.49
2018-09-02T17:14:02.132Z,15.52
2018-09-02T17:16:32.336Z,15.52
2018-09-02T17:19:11.591Z,15.56
2018-09-02T17:21:41.889Z,15.57
2018-09-02T17:24:10.739Z,15.61
2018-09-02T17:26:39.954Z,15.65
2018-09-02T17:29:09.294Z,15.64
2018-09-02T17:31:38.731Z,15.68
2018-09-02T17:34:08.618Z,15.66
2018-09-02T17:36:37.847Z,15.67
2018-09-02T17:39:09.501Z,15.66
2018-09-02T17:41:38.423Z,15.66
2018-09-02T17:44:08.556Z,15.65
2018-09-02T17:46:38.406Z,15.59
2018-09-02T17:49:07.992Z,15.59
2018-09-02T17:51:37.216Z,15.56
2018-09-02T17:54:06.363Z,15.58
2018-09-02T17:56:35.668Z,15.57
2018-09-02T17:59:06.791Z,15.55
2018-09-02T18:01:36.436Z,15.53
2018-09-02T18:04:05.469Z,15.52
2018-09-02T18:06:34.286Z,15.48
2018-09-02T18:09:03.802Z,15.48
2018-09-02T18:11:33.137Z,15.45
2018-09-02T18:14:02.888Z,15.44
2018-09-02T18:16:34.208Z,15.40
2018-09-02T18:19:03.867Z,15.40
2018-09-02T18:21:32.912Z,15.36
2018-09-02T18:24:01.979Z,15.36
2018-09-02T18:26:31.281Z,15.32
2018-09-02T18:29:00.643Z,15.31
2018-09-02T18:31:29.845Z,15.31
2018-09-02T18:34:00.138Z,15.31
2018-09-02T18:36:29.325Z,15.32
2018-09-02T18:38:58.116Z,15.32
2018-09-02T18:41:28.501Z,15.32
2018-09-02T18:43:58.653Z,15.32
2018-09-02T18:46:28.037Z,15.31
2018-09-02T18:48:58.171Z,15.30
2018-09-02T18:51:27.363Z,15.31
2018-09-02T18:53:56.570Z,15.28
2018-09-02T18:56:26.377Z,15.30
2018-09-02T18:58:57.098Z,15.29
2018-09-02T19:01:26.368Z,15.29
2018-09-02T19:03:57.362Z,15.28
2018-09-02T19:06:26.546Z,15.27
2018-09-02T19:08:55.627Z,15.28
2018-09-02T19:11:26.088Z,15.28
2018-09-02T19:13:55.377Z,15.26
2018-09-02T19:16:25.105Z,15.25
2018-09-02T19:18:54.435Z,15.25
2018-09-02T19:21:24.826Z,15.25
2018-09-02T19:23:53.821Z,15.23
2018-09-02T19:26:23.593Z,15.19
2018-09-02T19:28:52.938Z,15.21
2018-09-02T19:31:22.704Z,15.20
2018-09-02T19:33:52.424Z,15.20
2018-09-02T19:36:23.487Z,15.19
2018-09-02T19:38:52.408Z,15.19
2018-09-02T19:41:21.752Z,15.19
2018-09-02T19:43:50.789Z,15.19
2018-09-02T19:46:19.922Z,15.18
2018-09-02T19:48:48.840Z,15.20
2018-09-02T19:51:18.380Z,15.20
2018-09-02T19:53:48.427Z,15.18
2018-09-02T19:56:17.813Z,15.17
2018-09-02T19:58:46.814Z,15.16
2018-09-02T20:01:15.808Z,15.15
2018-09-02T20:03:45.318Z,15.16
2018-09-02T20:06:14.561Z,15.16
2018-09-02T20:08:43.823Z,15.16
2018-09-02T20:11:13.039Z,15.16
2018-09-02T20:13:42.224Z,15.17
2018-09-02T20:16:11.326Z,15.17
2018-09-02T20:18:40.187Z,15.17
2018-09-02T20:21:09.043Z,15.18
2018-09-02T20:23:37.765Z,15.18
2018-09-02T20:26:07.567Z,15.16
2018-09-02T20:28:36.650Z,15.16
2018-09-02T20:31:05.941Z,15.16
2018-09-02T20:33:35.642Z,15.17
2018-09-02T20:36:05.395Z,15.17
2018-09-02T20:38:34.384Z,15.18
2018-09-02T20:41:03.814Z,15.14
2018-09-02T20:43:32.724Z,15.16
2018-09-02T20:46:02.247Z,15.15
2018-09-02T20:48:31.418Z,15.15
2018-09-02T20:51:00.743Z,15.16
2018-09-02T20:53:31.797Z,15.15
2018-09-02T20:56:00.774Z,15.15
2018-09-02T20:58:30.449Z,15.15
2018-09-02T21:01:00.160Z,15.13
2018-09-02T21:03:29.627Z,15.14
2018-09-02T21:05:58.917Z,15.14
2018-09-02T21:08:30.216Z,15.13
2018-09-02T21:10:59.238Z,15.13
2018-09-02T21:13:29.388Z,15.14
2018-09-02T21:15:59.697Z,15.13
2018-09-02T21:18:30.862Z,15.11
2018-09-02T21:20:59.825Z,15.09
2018-09-02T21:23:29.035Z,15.10
2018-09-02T21:25:58.503Z,15.07
2018-09-02T21:28:27.643Z,15.09
2018-09-02T21:30:56.767Z,15.10
2018-09-02T21:33:26.681Z,15.08
2018-09-02T21:35:56.032Z,15.09
2018-09-02T21:38:25.678Z,15.09
2018-09-02T21:40:54.787Z,15.09
2018-09-02T21:43:24.009Z,15.07
2018-09-02T21:45:53.016Z,15.08
2018-09-02T21:48:22.037Z,15.08
2018-09-02T21:50:51.694Z,15.09
2018-09-02T21:53:20.768Z,15.07
2018-09-02T21:55:49.903Z,15.07
2018-09-02T21:58:18.946Z,15.07
2018-09-02T22:00:48.588Z,15.07
2018-09-02T22:03:17.888Z,15.08
2018-09-02T22:05:46.742Z,15.09
2018-09-02T22:08:16.154Z,15.09
2018-09-02T22:10:45.535Z,15.08
2018-09-02T22:13:14.804Z,15.09
2018-09-02T22:15:44.717Z,15.07
2018-09-02T22:18:13.692Z,15.01
2018-09-02T22:20:43.225Z,15.01
2018-09-02T22:23:12.741Z,15.01
2018-09-02T22:25:41.892Z,15.00
2018-09-02T22:28:11.473Z,15.01
2018-09-02T22:30:41.422Z,15.03
2018-09-02T22:33:10.333Z,15.03
2018-09-02T22:35:39.288Z,15.06
2018-09-02T22:38:09.393Z,15.01
2018-09-02T22:40:38.963Z,15.02
2018-09-02T22:43:08.128Z,15.03
2018-09-02T22:45:38.263Z,15.01
2018-09-02T22:48:07.815Z,15.03
2018-09-02T22:50:36.903Z,15.06
2018-09-02T22:53:06.008Z,15.04
2018-09-02T22:55:35.264Z,15.06
2018-09-02T22:58:04.686Z,15.05
2018-09-02T23:00:35.288Z,15.07
2018-09-02T23:03:04.570Z,15.06
2018-09-02T23:05:34.264Z,15.06
2018-09-02T23:08:03.749Z,15.06
2018-09-02T23:10:32.617Z,15.01
2018-09-02T23:13:01.475Z,15.00
2018-09-02T23:15:30.134Z,14.98
2018-09-02T23:17:59.974Z,14.98
2018-09-02T23:20:29.123Z,14.96
2018-09-02T23:22:58.884Z,14.92
2018-09-02T23:25:27.818Z,14.90
2018-09-02T23:27:56.559Z,14.91
2018-09-02T23:30:27.430Z,14.91
2018-09-02T23:32:56.479Z,14.92
2018-09-02T23:35:25.633Z,14.91
2018-09-02T23:37:54.588Z,14.86
2018-09-02T23:40:23.263Z,14.85
2018-09-02T23:42:52.635Z,14.86
2018-09-02T23:45:21.649Z,14.88
2018-09-02T23:47:50.840Z,14.90
2018-09-02T23:50:20.308Z,14.92
2018-09-02T23:52:49.348Z,14.93
2018-09-02T23:55:18.568Z,14.94
2018-09-02T23:57:47.810Z,14.93
